Time;durP1;ratioP1;P1;durP2;ratioP2;P2;SDS_P1;SDS_P2;PMS_P1;PMS_P2;Temp;Humidity;BMP_temperature;BMP_pressure;BME280_temperature;BME280_humidity;BME280_pressure;Samples;Min_cycle;Max_cycle;Signal;HPM_P1;HPM_P2
2023/05/15 00:02:21;;;;;;;7.22;3.50;;;;;;;;;;10397766;28;20491;-74
2023/05/15 00:07:24;;;;;;;6.82;3.28;;;;;;;;;;10397686;28;20455;-75
2023/05/15 00:12:27;;;;;;;6.35;3.30;;;;;;;;;;10397246;28;20061;-74
2023/05/15 00:17:31;;;;;;;7.30;3.72;;;;;;;;;;10395257;28;20038;-75
2023/05/15 00:22:34;;;;;;;;;;;;;;;;;;10398404;28;20113;-75
2023/05/15 00:27:36;;;;;;;7.05;3.50;;;;;;;;;;10399055;28;20433;-75
2023/05/15 00:32:46;;;;;;;8.32;3.63;;;;;;;;;;10399288;28;20033;-75
2023/05/15 00:37:49;;;;;;;7.95;3.70;;;;;;;;;;10395129;28;20115;-75
2023/05/15 00:42:54;;;;;;;9.70;3.80;;;;;;;;;;10396926;28;20562;-76
2023/05/15 00:47:58;;;;;;;8.82;3.58;;;;;;;;;;10399525;28;20052;-76
2023/05/15 00:53:01;;;;;;;10.57;4.55;;;;;;;;;;10399684;28;20088;-75
2023/05/15 00:58:04;;;;;;;7.15;3.67;;;;;;;;;;10398455;28;20053;-76
2023/05/15 01:03:08;;;;;;;7.47;3.60;;;;;;;;;;10395270;28;20041;-75
2023/05/15 01:08:18;;;;;;;10.98;4.20;;;;;;;;;;10397173;28;20111;-74
2023/05/15 01:13:21;;;;;;;8.95;3.75;;;;;;;;;;10395108;28;20199;-75
2023/05/15 01:18:30;;;;;;;10.30;4.57;;;;;;;;;;10395748;28;20155;-75
2023/05/15 01:23:39;;;;;;;8.10;3.97;;;;;;;;;;10402385;28;21951;-75
2023/05/15 01:28:46;;;;;;;7.80;3.65;;;;;;;;;;10401291;28;20128;-75
2023/05/15 01:33:53;;;;;;;11.65;4.50;;;;;;;;;;10402396;28;20037;-75
2023/05/15 01:38:57;;;;;;;9.13;4.70;;;;;;;;;;10404461;28;20060;-75
2023/05/15 01:44:04;;;;;;;12.13;5.03;;;;;;;;;;10394729;28;20125;-75
2023/05/15 01:49:09;;;;;;;12.30;5.22;;;;;;;;;;10401798;28;20044;-75
2023/05/15 01:54:13;;;;;;;13.13;5.50;;;;;;;;;;10401959;28;20033;-76
2023/05/15 01:59:19;;;;;;;12.00;5.38;;;;;;;;;;10401979;28;20115;-77
2023/05/15 02:04:22;;;;;;;11.82;4.50;;;;;;;;;;10398414;28;20134;-76
2023/05/15 02:09:26;;;;;;;15.80;5.53;;;;;;;;;;10402399;28;20045;-76
2023/05/15 02:14:30;;;;;;;13.85;5.35;;;;;;;;;;10399871;28;20704;-76
2023/05/15 02:19:32;;;;;;;;;;;;;;;;;;10403173;28;20049;-78
2023/05/15 02:24:35;;;;;;;12.15;5.18;;;;;;;;;;10401190;28;19975;-78
2023/05/15 02:29:42;;;;;;;13.00;5.22;;;;;;;;;;10403864;28;20050;-77
2023/05/15 02:34:47;;;;;;;11.88;4.88;;;;;;;;;;10395080;28;20705;-74
2023/05/15 02:39:53;;;;;;;15.32;6.53;;;;;;;;;;10400657;28;20161;-76
2023/05/15 02:44:57;;;;;;;14.98;5.70;;;;;;;;;;10398704;28;20050;-75
2023/05/15 02:50:00;;;;;;;17.52;6.35;;;;;;;;;;10401020;28;20072;-74
2023/05/15 02:55:02;;;;;;;15.48;6.57;;;;;;;;;;10413228;28;20086;-74
2023/05/15 03:00:11;;;;;;;15.57;6.65;;;;;;;;;;10397529;28;20065;-74
2023/05/15 03:05:14;;;;;;;15.70;5.95;;;;;;;;;;10400024;28;20042;-76
2023/05/15 03:10:17;;;;;;;9.30;4.67;;;;;;;;;;10400585;28;20080;-74
2023/05/15 03:15:22;;;;;;;12.10;5.27;;;;;;;;;;10400367;28;20115;-76
2023/05/15 03:20:25;;;;;;;11.70;5.53;;;;;;;;;;10398383;28;20307;-74
2023/05/15 03:25:28;;;;;;;12.48;5.53;;;;;;;;;;10402007;28;20396;-75
2023/05/15 03:30:33;;;;;;;17.88;5.00;;;;;;;;;;10401053;28;20045;-75
2023/05/15 03:35:35;;;;;;;11.40;5.28;;;;;;;;;;10395033;28;20042;-75
2023/05/15 03:40:39;;;;;;;11.98;4.85;;;;;;;;;;10400677;28;20045;-76
2023/05/15 03:45:43;;;;;;;15.80;6.32;;;;;;;;;;10399041;28;20486;-74
2023/05/15 03:50:46;;;;;;;12.73;5.30;;;;;;;;;;10396266;28;20044;-75
2023/05/15 03:55:49;;;;;;;13.43;6.20;;;;;;;;;;10398356;28;20049;-74
2023/05/15 04:00:53;;;;;;;14.98;6.40;;;;;;;;;;10398338;28;20039;-75
2023/05/15 04:05:56;;;;;;;;;;;;;;;;;;10398396;28;20041;-75
2023/05/15 04:10:58;;;;;;;12.43;5.35;;;;;;;;;;10397928;28;19921;-75
2023/05/15 04:16:03;;;;;;;9.40;4.27;;;;;;;;;;10394384;28;20038;-74
2023/05/15 04:21:06;;;;;;;13.18;5.43;;;;;;;;;;10395565;28;20044;-77
2023/05/15 04:26:09;;;;;;;13.20;5.93;;;;;;;;;;10398277;28;20045;-75
2023/05/15 04:31:13;;;;;;;14.20;6.00;;;;;;;;;;10395373;28;20310;-76
2023/05/15 04:36:17;;;;;;;17.40;6.15;;;;;;;;;;10403265;28;20529;-75
2023/05/15 04:41:21;;;;;;;13.10;6.35;;;;;;;;;;10398355;28;20076;-75
2023/05/15 04:46:25;;;;;;;13.43;5.85;;;;;;;;;;10397481;28;20054;-75
2023/05/15 04:51:28;;;;;;;12.45;5.68;;;;;;;;;;10397508;28;20064;-75
2023/05/15 04:56:31;;;;;;;14.07;6.23;;;;;;;;;;10397649;28;20049;-77
2023/05/15 05:01:36;;;;;;;12.87;5.70;;;;;;;;;;10406077;28;20452;-76
2023/05/15 05:06:39;;;;;;;14.85;6.18;;;;;;;;;;10404834;28;20296;-79
2023/05/15 05:11:42;;;;;;;16.00;6.47;;;;;;;;;;10402396;28;20049;-77
2023/05/15 05:16:46;;;;;;;12.98;6.45;;;;;;;;;;10402654;28;20049;-78
2023/05/15 05:21:49;;;;;;;13.60;5.93;;;;;;;;;;10404473;28;20118;-77
2023/05/15 05:26:52;;;;;;;16.83;6.83;;;;;;;;;;10402049;28;20423;-76
2023/05/15 05:31:56;;;;;;;14.45;5.90;;;;;;;;;;10405470;28;20586;-76
2023/05/15 05:36:58;;;;;;;13.43;5.88;;;;;;;;;;10403686;28;20805;-76
2023/05/15 05:42:01;;;;;;;12.95;6.15;;;;;;;;;;10407586;28;20132;-76
2023/05/15 05:47:06;;;;;;;13.30;6.35;;;;;;;;;;10406229;28;20056;-75
2023/05/15 05:52:09;;;;;;;14.23;6.50;;;;;;;;;;10402585;28;20386;-75
2023/05/15 05:57:13;;;;;;;13.73;6.35;;;;;;;;;;10405301;28;20486;-76
2023/05/15 06:02:17;;;;;;;14.57;6.83;;;;;;;;;;10415303;28;20045;-77
2023/05/15 06:07:20;;;;;;;17.00;7.20;;;;;;;;;;10406535;28;20065;-76
2023/05/15 06:12:23;;;;;;;13.47;6.00;;;;;;;;;;10399417;28;20048;-76
2023/05/15 06:17:26;;;;;;;15.60;6.32;;;;;;;;;;10403153;28;20075;-76
2023/05/15 06:22:31;;;;;;;;;;;;;;;;;;10401050;28;20040;-76
2023/05/15 06:27:34;;;;;;;12.38;5.00;;;;;;;;;;10400076;28;20046;-77
2023/05/15 06:32:38;;;;;;;13.60;6.18;;;;;;;;;;10384633;28;20558;-77
2023/05/15 06:37:41;;;;;;;10.73;5.65;;;;;;;;;;10395205;28;20583;-77
2023/05/15 06:42:43;;;;;;;12.93;5.57;;;;;;;;;;10399837;28;20045;-76
2023/05/15 06:47:47;;;;;;;16.83;5.50;;;;;;;;;;10388798;28;20064;-76
2023/05/15 06:52:50;;;;;;;10.57;5.70;;;;;;;;;;10391348;28;20046;-77
2023/05/15 06:57:53;;;;;;;9.60;5.40;;;;;;;;;;10401927;28;20041;-77
2023/05/15 07:02:57;;;;;;;11.38;5.70;;;;;;;;;;10390748;28;20033;-77
2023/05/15 07:07:59;;;;;;;11.05;5.07;;;;;;;;;;10393238;28;20045;-77
2023/05/15 07:13:02;;;;;;;10.00;4.78;;;;;;;;;;10397445;28;20380;-78
2023/05/15 07:18:06;;;;;;;9.75;4.75;;;;;;;;;;10390972;28;20045;-78
2023/05/15 07:23:09;;;;;;;7.53;4.47;;;;;;;;;;10391670;28;20045;-77
2023/05/15 07:28:12;;;;;;;7.90;3.97;;;;;;;;;;10393962;28;20045;-77
2023/05/15 07:33:16;;;;;;;8.90;4.30;;;;;;;;;;10392941;28;20284;-77
2023/05/15 07:38:19;;;;;;;7.50;4.40;;;;;;;;;;10394753;28;20034;-77
2023/05/15 07:43:22;;;;;;;9.88;4.53;;;;;;;;;;10392407;28;20379;-78
2023/05/15 07:48:27;;;;;;;6.55;3.95;;;;;;;;;;10394715;28;20050;-78
2023/05/15 07:53:29;;;;;;;7.75;4.10;;;;;;;;;;10390061;28;20049;-78
2023/05/15 07:58:34;;;;;;;6.00;3.60;;;;;;;;;;10390284;28;20143;-78
2023/05/15 08:03:38;;;;;;;5.80;3.80;;;;;;;;;;10388402;28;20118;-76
2023/05/15 08:08:41;;;;;;;4.90;3.25;;;;;;;;;;10392008;28;20041;-77
2023/05/15 08:13:44;;;;;;;5.78;3.05;;;;;;;;;;10387995;28;20486;-78
2023/05/15 08:18:51;;;;;;;4.97;2.85;;;;;;;;;;10389785;28;20041;-78
2023/05/15 08:23:54;;;;;;;5.70;3.00;;;;;;;;;;10389658;28;20114;-78
2023/05/15 08:28:57;;;;;;;5.38;3.55;;;;;;;;;;10393573;28;20498;-78
2023/05/15 08:34:01;;;;;;;4.85;3.33;;;;;;;;;;10392817;28;20041;-78
2023/05/15 08:39:03;;;;;;;6.25;3.50;;;;;;;;;;10388354;28;20049;-78
2023/05/15 08:44:08;;;;;;;6.45;3.75;;;;;;;;;;10390395;28;20064;-77
2023/05/15 08:49:16;;;;;;;5.18;3.60;;;;;;;;;;10388336;28;20049;-78
2023/05/15 08:54:18;;;;;;;7.10;3.80;;;;;;;;;;10388804;28;20033;-79
2023/05/15 08:59:21;;;;;;;5.95;3.70;;;;;;;;;;10389181;28;20046;-79
2023/05/15 09:04:26;;;;;;;5.03;3.53;;;;;;;;;;10387254;28;20433;-79
2023/05/15 09:09:29;;;;;;;5.97;3.50;;;;;;;;;;10390968;28;20056;-77
2023/05/15 09:14:32;;;;;;;6.07;3.05;;;;;;;;;;10390111;28;20041;-77
2023/05/15 09:19:38;;;;;;;6.57;3.50;;;;;;;;;;10388740;28;20045;-77
2023/05/15 09:24:41;;;;;;;7.53;3.15;;;;;;;;;;10387232;28;20092;-78
2023/05/15 09:29:44;;;;;;;6.18;3.22;;;;;;;;;;10388944;28;20119;-76
2023/05/15 09:34:48;;;;;;;9.13;4.35;;;;;;;;;;10387777;28;20386;-78
2023/05/15 09:39:50;;;;;;;4.78;3.70;;;;;;;;;;10389155;28;20041;-78
2023/05/15 09:44:53;;;;;;;;;;;;;;;;;;10395727;28;20057;-77
2023/05/15 09:49:57;;;;;;;7.97;4.97;;;;;;;;;;10393944;28;20368;-77
2023/05/15 09:54:59;;;;;;;5.05;3.47;;;;;;;;;;10396182;28;20046;-77
2023/05/15 10:00:04;;;;;;;7.70;4.68;;;;;;;;;;10394809;28;20045;-78
2023/05/15 10:05:08;;;;;;;9.27;3.85;;;;;;;;;;10392355;28;20063;-77
2023/05/15 10:10:11;;;;;;;4.07;3.15;;;;;;;;;;10395963;28;20069;-77
2023/05/15 10:15:14;;;;;;;6.53;3.70;;;;;;;;;;10394670;28;20053;-77
2023/05/15 10:20:19;;;;;;;6.68;4.25;;;;;;;;;;10394694;28;20274;-77
2023/05/15 10:25:26;;;;;;;12.50;9.23;;;;;;;;;;10391818;28;20046;-78
2023/05/15 10:30:31;;;;;;;4.78;4.30;;;;;;;;;;10394400;28;20041;-80
2023/05/15 10:35:35;;;;;;;5.35;3.70;;;;;;;;;;10398508;28;20056;-79
2023/05/15 10:40:40;;;;;;;5.85;4.05;;;;;;;;;;10395241;28;20129;-78
2023/05/15 10:45:44;;;;;;;9.65;5.55;;;;;;;;;;10397247;28;20041;-78
2023/05/15 10:50:49;;;;;;;8.27;4.75;;;;;;;;;;10395242;28;20525;-78
2023/05/15 10:55:52;;;;;;;7.43;4.95;;;;;;;;;;10389716;28;20518;-77
2023/05/15 11:00:54;;;;;;;;;;;;;;;;;;10396977;28;20624;-78
2023/05/15 11:06:09;;;;;;;7.17;4.60;;;;;;;;;;10396753;28;19925;-77
2023/05/15 11:11:26;;;;;;;7.10;4.18;;;;;;;;;;10412374;28;20362;-78
2023/05/15 11:16:49;;;;;;;9.75;4.57;;;;;;;;;;10394701;28;20052;-77
2023/05/15 11:21:56;;;;;;;8.32;4.88;;;;;;;;;;10396774;28;20486;-78
2023/05/15 11:27:02;;;;;;;6.40;4.40;;;;;;;;;;10395860;28;20395;-77
2023/05/15 11:32:28;;;;;;;5.97;4.28;;;;;;;;;;10392436;28;20041;-77
2023/05/15 11:37:32;;;;;;;7.85;4.57;;;;;;;;;;10394610;28;20120;-78
2023/05/15 11:42:35;;;;;;;5.03;3.38;;;;;;;;;;10393410;28;20034;-78
2023/05/15 11:47:38;;;;;;;5.13;3.80;;;;;;;;;;10399224;28;20046;-77
2023/05/15 11:52:42;;;;;;;5.15;3.72;;;;;;;;;;10400627;28;20045;-78
2023/05/15 11:57:45;;;;;;;5.70;3.47;;;;;;;;;;10392113;28;20080;-79
2023/05/15 12:02:48;;;;;;;5.90;3.88;;;;;;;;;;10395386;28;20449;-78
2023/05/15 12:07:52;;;;;;;6.32;4.07;;;;;;;;;;10389997;28;20474;-77
2023/05/15 12:12:55;;;;;;;7.30;4.00;;;;;;;;;;10395427;28;20041;-78
2023/05/15 12:17:57;;;;;;;9.43;4.23;;;;;;;;;;10391340;28;20041;-78
2023/05/15 12:23:02;;;;;;;8.65;3.90;;;;;;;;;;10395236;28;20123;-77
2023/05/15 12:28:05;;;;;;;6.57;3.13;;;;;;;;;;10395107;28;20041;-79
2023/05/15 12:33:09;;;;;;;5.43;3.53;;;;;;;;;;10392489;28;20574;-77
2023/05/15 12:38:15;;;;;;;6.15;3.30;;;;;;;;;;10396375;28;20065;-76
2023/05/15 12:43:18;;;;;;;3.85;2.70;;;;;;;;;;10393599;28;20056;-79
2023/05/15 12:48:21;;;;;;;4.93;2.40;;;;;;;;;;10395005;28;20045;-77
2023/05/15 12:53:25;;;;;;;9.35;3.50;;;;;;;;;;10391912;28;20534;-77
2023/05/15 12:58:28;;;;;;;3.63;2.00;;;;;;;;;;10394681;28;20045;-77
2023/05/15 13:03:31;;;;;;;7.83;3.13;;;;;;;;;;10392273;28;20046;-76
2023/05/15 13:08:39;;;;;;;8.25;3.50;;;;;;;;;;10411627;28;20049;-80
2023/05/15 13:13:43;;;;;;;5.53;2.60;;;;;;;;;;10399059;28;20068;-79
2023/05/15 13:18:45;;;;;;;6.72;2.75;;;;;;;;;;10409275;28;20487;-80
2023/05/15 13:23:49;;;;;;;5.90;2.73;;;;;;;;;;10409331;28;20128;-79
2023/05/15 13:28:52;;;;;;;2.67;1.75;;;;;;;;;;10404410;28;20045;-78
2023/05/15 13:33:55;;;;;;;5.00;3.10;;;;;;;;;;10407592;28;20486;-78
2023/05/15 13:38:59;;;;;;;8.10;3.10;;;;;;;;;;10407881;28;20494;-78
2023/05/15 13:44:02;;;;;;;5.55;2.90;;;;;;;;;;10396369;28;20152;-77
2023/05/15 13:49:04;;;;;;;7.90;3.53;;;;;;;;;;10400204;28;20049;-78
2023/05/15 13:54:10;;;;;;;5.53;2.30;;;;;;;;;;10398014;28;20140;-78
2023/05/15 13:59:13;;;;;;;9.00;3.58;;;;;;;;;;10396324;28;20053;-76
2023/05/15 14:04:16;;;;;;;3.67;2.05;;;;;;;;;;10394901;28;20053;-77
2023/05/15 14:09:20;;;;;;;4.88;2.42;;;;;;;;;;10397570;28;21287;-76
2023/05/15 14:14:23;;;;;;;5.88;2.60;;;;;;;;;;10397603;28;20099;-77
2023/05/15 14:19:26;;;;;;;4.30;2.40;;;;;;;;;;10398969;28;20107;-76
2023/05/15 14:24:30;;;;;;;6.47;3.00;;;;;;;;;;10395043;28;20069;-77
2023/05/15 14:29:32;;;;;;;8.88;3.17;;;;;;;;;;10388382;28;20045;-77
2023/05/15 14:34:35;;;;;;;3.27;2.00;;;;;;;;;;10390085;28;20053;-76
2023/05/15 14:39:40;;;;;;;4.10;2.00;;;;;;;;;;10392250;28;20045;-76
2023/05/15 14:44:42;;;;;;;4.20;2.53;;;;;;;;;;10390645;28;20049;-76
2023/05/15 14:49:45;;;;;;;6.50;3.23;;;;;;;;;;10392806;28;20499;-76
2023/05/15 14:54:49;;;;;;;4.90;2.42;;;;;;;;;;10392086;28;20306;-75
2023/05/15 15:00:12;;;;;;;2.25;1.33;;;;;;;;;;10389335;28;20041;-75
2023/05/15 15:05:14;;;;;;;2.55;1.85;;;;;;;;;;10393111;28;20140;-76
2023/05/15 15:10:18;;;;;;;4.13;2.28;;;;;;;;;;10394004;28;20470;-75
2023/05/15 15:15:21;;;;;;;2.70;1.90;;;;;;;;;;10394816;28;20044;-76
2023/05/15 15:20:24;;;;;;;1.90;1.27;;;;;;;;;;10388264;28;20044;-76
2023/05/15 15:25:29;;;;;;;6.05;2.70;;;;;;;;;;10390411;28;20098;-78
2023/05/15 15:30:34;;;;;;;5.22;2.58;;;;;;;;;;10391041;28;20041;-76
2023/05/15 15:35:36;;;;;;;1.90;1.50;;;;;;;;;;10390698;28;20128;-76
2023/05/15 15:40:41;;;;;;;3.33;2.30;;;;;;;;;;10391554;28;20037;-78
2023/05/15 15:45:44;;;;;;;3.38;1.80;;;;;;;;;;10388805;28;20045;-77
2023/05/15 15:50:47;;;;;;;2.13;1.77;;;;;;;;;;10390541;28;20056;-77
2023/05/15 15:55:51;;;;;;;7.30;1.63;;;;;;;;;;10386421;28;20061;-76
2023/05/15 16:00:54;;;;;;;3.17;1.98;;;;;;;;;;10390338;28;20635;-78
2023/05/15 16:05:56;;;;;;;5.88;2.75;;;;;;;;;;10391209;28;20077;-77
2023/05/15 16:11:03;;;;;;;1.73;1.38;;;;;;;;;;10389806;28;20049;-78
2023/05/15 16:16:05;;;;;;;2.45;1.67;;;;;;;;;;10388787;28;20067;-78
2023/05/15 16:21:08;;;;;;;5.05;2.85;;;;;;;;;;10387098;28;20060;-80
2023/05/15 16:26:12;;;;;;;3.92;2.13;;;;;;;;;;10389724;28;20046;-76
2023/05/15 16:31:15;;;;;;;2.28;1.15;;;;;;;;;;10390401;28;20065;-77
2023/05/15 16:36:18;;;;;;;3.90;2.20;;;;;;;;;;10385923;28;20572;-77
2023/05/15 16:41:23;;;;;;;3.75;2.00;;;;;;;;;;10386239;28;20053;-76
2023/05/15 16:46:25;;;;;;;2.40;1.38;;;;;;;;;;10391205;28;20065;-76
2023/05/15 16:51:28;;;;;;;2.07;0.80;;;;;;;;;;10390953;28;20506;-77
2023/05/15 16:56:32;;;;;;;2.15;1.52;;;;;;;;;;10394607;28;20041;-77
2023/05/15 17:01:35;;;;;;;1.38;1.00;;;;;;;;;;10394438;28;20061;-78
2023/05/15 17:06:37;;;;;;;2.63;1.60;;;;;;;;;;10397296;28;20126;-75
2023/05/15 17:11:41;;;;;;;4.63;1.85;;;;;;;;;;10398992;28;20060;-75
2023/05/15 17:16:44;;;;;;;2.58;1.23;;;;;;;;;;10397501;28;20547;-75
2023/05/15 17:21:47;;;;;;;2.90;1.33;;;;;;;;;;10389969;28;20140;-77
2023/05/15 17:26:51;;;;;;;4.07;2.15;;;;;;;;;;10396741;28;20151;-76
2023/05/15 17:31:54;;;;;;;4.85;2.42;;;;;;;;;;10393881;28;20501;-76
2023/05/15 17:36:57;;;;;;;3.90;2.03;;;;;;;;;;10402077;28;20143;-77
2023/05/15 17:42:02;;;;;;;4.20;2.70;;;;;;;;;;10400536;28;20048;-77
2023/05/15 17:47:04;;;;;;;5.05;2.63;;;;;;;;;;10406725;28;20037;-77
2023/05/15 17:52:08;;;;;;;3.47;2.22;;;;;;;;;;10403044;28;20061;-77
2023/05/15 17:57:12;;;;;;;5.75;2.65;;;;;;;;;;10404372;28;20033;-76
2023/05/15 18:02:15;;;;;;;3.72;2.72;;;;;;;;;;10401217;28;20057;-78
2023/05/15 18:07:18;;;;;;;7.25;2.70;;;;;;;;;;10405754;28;20053;-78
2023/05/15 18:12:23;;;;;;;5.80;3.03;;;;;;;;;;10404293;28;20418;-78
2023/05/15 18:17:25;;;;;;;2.22;1.25;;;;;;;;;;10400580;28;20037;-77
2023/05/15 18:22:28;;;;;;;6.68;3.00;;;;;;;;;;10407599;28;20204;-78
2023/05/15 18:27:32;;;;;;;6.15;2.88;;;;;;;;;;10403700;28;20402;-77
2023/05/15 18:32:35;;;;;;;4.85;3.00;;;;;;;;;;10401079;28;20062;-76
2023/05/15 18:37:38;;;;;;;6.63;3.33;;;;;;;;;;10404499;28;20034;-77
2023/05/15 18:42:43;;;;;;;2.20;1.60;;;;;;;;;;10399939;28;20303;-78
2023/05/15 18:47:46;;;;;;;;;;;;;;;;;;10401087;28;20046;-76
2023/05/15 18:52:49;;;;;;;4.33;1.90;;;;;;;;;;10403672;28;19928;-78
2023/05/15 18:57:53;;;;;;;5.70;3.45;;;;;;;;;;10399713;28;20311;-78
2023/05/15 19:02:55;;;;;;;;;;;;;;;;;;10403901;28;20060;-75
2023/05/15 19:07:58;;;;;;;9.25;3.88;;;;;;;;;;10400121;28;20076;-77
2023/05/15 19:13:02;;;;;;;11.07;4.35;;;;;;;;;;10394874;28;20045;-77
2023/05/15 19:18:05;;;;;;;6.70;3.30;;;;;;;;;;10400622;28;20038;-78
2023/05/15 19:23:08;;;;;;;1.80;1.08;;;;;;;;;;10416659;28;20129;-78
2023/05/15 19:28:13;;;;;;;4.35;2.53;;;;;;;;;;10411148;28;20045;-77
2023/05/15 19:33:16;;;;;;;5.20;2.67;;;;;;;;;;10402221;28;20049;-77
2023/05/15 19:38:19;;;;;;;4.67;2.40;;;;;;;;;;10401169;28;20041;-77
2023/05/15 19:43:24;;;;;;;6.23;2.20;;;;;;;;;;10399082;28;20037;-76
2023/05/15 19:48:26;;;;;;;5.20;2.65;;;;;;;;;;10401662;28;20100;-76
2023/05/15 19:53:29;;;;;;;4.07;2.47;;;;;;;;;;10400528;28;20053;-75
2023/05/15 19:58:33;;;;;;;4.65;1.80;;;;;;;;;;10396020;28;20052;-77
2023/05/15 20:03:36;;;;;;;2.60;1.02;;;;;;;;;;10400407;28;20061;-76
2023/05/15 20:08:39;;;;;;;6.10;3.17;;;;;;;;;;10403345;28;20124;-76
2023/05/15 20:13:44;;;;;;;4.75;2.33;;;;;;;;;;10398179;28;20049;-76
2023/05/15 20:18:46;;;;;;;4.07;2.00;;;;;;;;;;10397528;28;20053;-76
2023/05/15 20:23:49;;;;;;;3.70;1.65;;;;;;;;;;10399237;28;20053;-76
2023/05/15 20:28:54;;;;;;;6.33;2.73;;;;;;;;;;10400068;28;20052;-77
2023/05/15 20:33:57;;;;;;;3.67;2.20;;;;;;;;;;10403025;28;20509;-76
2023/05/15 20:39:05;;;;;;;6.13;2.70;;;;;;;;;;10408371;28;20108;-76
2023/05/15 20:44:08;;;;;;;3.38;2.10;;;;;;;;;;10405301;28;20041;-76
2023/05/15 20:49:11;;;;;;;5.80;2.80;;;;;;;;;;10402206;28;20470;-78
2023/05/15 20:54:14;;;;;;;1.95;1.30;;;;;;;;;;10398335;28;20058;-77
2023/05/15 20:59:18;;;;;;;2.15;1.15;;;;;;;;;;10399186;28;20566;-76
2023/05/15 21:04:20;;;;;;;4.15;2.40;;;;;;;;;;10402143;28;20053;-77
2023/05/15 21:09:23;;;;;;;4.50;2.22;;;;;;;;;;10402953;28;20046;-77
2023/05/15 21:14:27;;;;;;;4.55;2.33;;;;;;;;;;10398487;28;20050;-76
2023/05/15 21:19:29;;;;;;;;;;;;;;;;;;10400791;28;20115;-76
2023/05/15 21:24:32;;;;;;;6.20;2.70;;;;;;;;;;10398839;28;19921;-78
2023/05/15 21:29:36;;;;;;;3.78;2.10;;;;;;;;;;10395808;28;20107;-78
2023/05/15 21:34:38;;;;;;;2.40;1.23;;;;;;;;;;10396783;28;20060;-77
2023/05/15 21:39:41;;;;;;;2.42;1.60;;;;;;;;;;10400230;28;20099;-76
2023/05/15 21:44:45;;;;;;;5.72;2.15;;;;;;;;;;10402663;28;20064;-77
2023/05/15 21:49:47;;;;;;;4.85;2.33;;;;;;;;;;10403984;28;20049;-75
2023/05/15 21:54:50;;;;;;;4.68;2.45;;;;;;;;;;10405943;28;20041;-77
2023/05/15 21:59:54;;;;;;;5.15;2.53;;;;;;;;;;10410660;28;20045;-78
2023/05/15 22:04:56;;;;;;;;;;;;;;;;;;10409248;28;20064;-76
2023/05/15 22:09:59;;;;;;;1.95;1.27;;;;;;;;;;10411061;28;19925;-77
2023/05/15 22:15:03;;;;;;;2.05;1.05;;;;;;;;;;10405239;28;20114;-76
2023/05/15 22:20:10;;;;;;;2.47;1.40;;;;;;;;;;10412008;28;20069;-76
2023/05/15 22:25:12;;;;;;;4.60;2.10;;;;;;;;;;10399753;28;20045;-77
2023/05/15 22:30:16;;;;;;;3.88;2.33;;;;;;;;;;10396394;28;20045;-77
2023/05/15 22:35:19;;;;;;;;;;;;;;;;;;10401861;28;20048;-77
2023/05/15 22:40:21;;;;;;;5.20;2.67;;;;;;;;;;10401679;28;20032;-76
2023/05/15 22:45:25;;;;;;;4.15;2.33;;;;;;;;;;10398981;28;20049;-78
2023/05/15 22:50:28;;;;;;;;;;;;;;;;;;10400971;28;20045;-76
2023/05/15 22:55:30;;;;;;;5.38;2.63;;;;;;;;;;10404450;28;19937;-77
2023/05/15 23:00:34;;;;;;;5.93;2.83;;;;;;;;;;10401398;28;20478;-77
2023/05/15 23:05:37;;;;;;;;;;;;;;;;;;10402728;28;20059;-76
2023/05/15 23:10:39;;;;;;;5.70;2.50;;;;;;;;;;10405444;28;19927;-76
2023/05/15 23:15:44;;;;;;;4.07;2.05;;;;;;;;;;10397465;28;20068;-78
2023/05/15 23:20:46;;;;;;;3.78;1.88;;;;;;;;;;10399412;28;20034;-77
2023/05/15 23:25:49;;;;;;;3.90;1.50;;;;;;;;;;10401830;28;20124;-78
2023/05/15 23:30:53;;;;;;;5.38;3.00;;;;;;;;;;10400283;28;20045;-77
2023/05/15 23:35:56;;;;;;;4.22;1.98;;;;;;;;;;10403306;28;20049;-76
2023/05/15 23:40:58;;;;;;;5.15;2.85;;;;;;;;;;10404758;28;20053;-77
2023/05/15 23:46:02;;;;;;;6.03;3.17;;;;;;;;;;10402820;28;20551;-76
2023/05/15 23:51:05;;;;;;;;;;;;;;;;;;10401091;28;20060;-75
2023/05/15 23:56:08;;;;;;;5.88;3.08;;;;;;;;;;10401506;28;19928;-77
